Time;durP1;ratioP1;P1;durP2;ratioP2;P2;SDS_P1;SDS_P2;PMS_P1;PMS_P2;Temp;Humidity;BMP_temperature;BMP_pressure;BME280_temperature;BME280_humidity;BME280_pressure;Samples;Min_cycle;Max_cycle;Signal;HPM_P1;HPM_P2
2023/01/13 00:01:50;;;;;;;0.68;0.68;;;;;;;;;;5032823;28;20044;-70
2023/01/13 00:04:15;;;;;;;0.20;0.20;;;;;;;;;;5033442;28;20021;-70
2023/01/13 00:06:41;;;;;;;7.13;4.50;;;;;;;;;;5033002;28;20477;-70
2023/01/13 00:09:06;;;;;;;0.15;0.15;;;;;;;;;;5015872;28;20029;-70
2023/01/13 00:11:32;;;;;;;0.30;0.30;;;;;;;;;;5033734;28;20044;-70
2023/01/13 00:13:57;;;;;;;0.80;0.80;;;;;;;;;;5015793;28;20072;-69
2023/01/13 00:16:22;;;;;;;18.40;5.43;;;;;;;;;;5034570;28;20468;-69
2023/01/13 00:18:50;;;;;;;2.17;2.03;;;;;;;;;;5037032;28;20025;-69
2023/01/13 00:21:17;;;;;;;1.50;1.40;;;;;;;;;;5036837;28;20021;-70
2023/01/13 00:23:43;;;;;;;1.95;1.85;;;;;;;;;;5036812;28;20033;-69
2023/01/13 00:26:12;;;;;;;6.93;6.40;;;;;;;;;;5019206;28;20025;-69
2023/01/13 00:28:38;;;;;;;1.45;1.35;;;;;;;;;;5036723;28;20026;-70
2023/01/13 00:31:07;;;;;;;2.20;1.48;;;;;;;;;;5018940;28;20029;-69
2023/01/13 00:33:33;;;;;;;0.63;0.63;;;;;;;;;;5036799;28;20483;-69
2023/01/13 00:35:59;;;;;;;0.20;0.20;;;;;;;;;;5036533;28;20009;-69
2023/01/13 00:38:25;;;;;;;2.83;1.95;;;;;;;;;;5036797;28;20079;-69
2023/01/13 00:40:57;;;;;;;9.20;8.35;;;;;;;;;;5036739;28;20108;-70
2023/01/13 00:43:23;;;;;;;1.15;1.08;;;;;;;;;;5036667;28;20372;-69
2023/01/13 00:45:51;;;;;;;0.45;0.45;;;;;;;;;;5036596;28;20021;-70
2023/01/13 00:48:18;;;;;;;1.00;0.90;;;;;;;;;;5036472;28;20029;-69
2023/01/13 00:50:45;;;;;;;1.42;1.33;;;;;;;;;;5036291;28;20045;-70
2023/01/13 00:53:12;;;;;;;2.05;1.95;;;;;;;;;;5036307;28;20376;-69
2023/01/13 00:55:38;;;;;;;2.17;1.65;;;;;;;;;;5018642;28;20023;-70
2023/01/13 00:58:03;;;;;;;0.30;0.30;;;;;;;;;;5036335;28;20037;-70
2023/01/13 01:00:29;;;;;;;1.05;1.05;;;;;;;;;;5036174;28;20463;-69
2023/01/13 01:02:55;;;;;;;0.20;0.20;;;;;;;;;;5031644;28;20120;-71
2023/01/13 01:05:20;;;;;;;0.30;0.30;;;;;;;;;;5016135;28;20125;-70
2023/01/13 01:07:46;;;;;;;2.92;1.88;;;;;;;;;;5015378;28;20026;-68
2023/01/13 01:10:11;;;;;;;23.35;11.55;;;;;;;;;;5014765;28;20462;-70
2023/01/13 01:12:37;;;;;;;0.55;0.55;;;;;;;;;;5016219;28;20025;-70
2023/01/13 01:15:04;;;;;;;0.10;0.10;;;;;;;;;;5015183;28;20034;-70
2023/01/13 01:17:30;;;;;;;5.28;4.85;;;;;;;;;;5015837;28;20030;-71
2023/01/13 01:19:55;;;;;;;0.65;0.65;;;;;;;;;;5012589;28;20428;-72
2023/01/13 01:22:21;;;;;;;1.77;1.58;;;;;;;;;;5014310;28;20586;-72
2023/01/13 01:24:46;;;;;;;0.20;0.20;;;;;;;;;;5015880;28;20113;-71
2023/01/13 01:27:12;;;;;;;1.17;1.10;;;;;;;;;;5015583;28;20093;-71
2023/01/13 01:29:43;;;;;;;0.40;0.40;;;;;;;;;;5017239;28;20509;-72
2023/01/13 01:32:08;;;;;;;4.32;3.95;;;;;;;;;;4999262;28;20030;-71
2023/01/13 01:34:34;;;;;;;0.10;0.10;;;;;;;;;;5015534;28;20100;-71
2023/01/13 01:36:59;;;;;;;0.10;0.10;;;;;;;;;;5032735;28;20425;-71
2023/01/13 01:39:25;;;;;;;1.65;1.45;;;;;;;;;;5032987;28;20100;-71
2023/01/13 01:44:40;;;;;;;2.35;2.13;;;;;;;;;;5031472;28;20030;-71
2023/01/13 01:47:06;;;;;;;0.10;0.10;;;;;;;;;;5032237;28;20028;-72
2023/01/13 01:49:32;;;;;;;0.10;0.10;;;;;;;;;;5009037;28;20406;-71
2023/01/13 01:52:03;;;;;;;0.47;0.47;;;;;;;;;;5034787;28;20041;-72
2023/01/13 01:54:37;;;;;;;0.00;0.00;;;;;;;;;;5032456;28;20492;-70
2023/01/13 01:57:03;;;;;;;0.38;0.38;;;;;;;;;;5033839;28;20029;-73
2023/01/13 01:59:30;;;;;;;0.82;0.82;;;;;;;;;;5016864;28;20013;-69
2023/01/13 02:01:56;;;;;;;1.25;1.10;;;;;;;;;;5033854;28;20029;-71
2023/01/13 02:04:24;;;;;;;1.10;1.00;;;;;;;;;;4997973;28;20037;-71
2023/01/13 02:06:51;;;;;;;1.38;1.35;;;;;;;;;;5015161;28;20025;-71
2023/01/13 02:09:17;;;;;;;0.88;0.88;;;;;;;;;;5013159;28;20022;-71
2023/01/13 02:14:27;;;;;;;0.60;0.60;;;;;;;;;;5014021;28;20022;-72
2023/01/13 02:17:16;;;;;;;0.38;0.38;;;;;;;;;;4997619;28;20117;-70
2023/01/13 02:19:56;;;;;;;0.32;0.32;;;;;;;;;;5009076;28;20088;-69
2023/01/13 02:22:42;;;;;;;0.10;0.10;;;;;;;;;;4997072;28;20030;-69
2023/01/13 02:25:11;;;;;;;0.20;0.20;;;;;;;;;;5014245;28;20038;-70
2023/01/13 02:27:48;;;;;;;0.20;0.20;;;;;;;;;;5014967;28;20014;-70
2023/01/13 02:33:05;;;;;;;0.50;0.50;;;;;;;;;;5014538;28;20021;-70
2023/01/13 02:35:35;;;;;;;1.05;1.00;;;;;;;;;;5007143;28;20060;-70
2023/01/13 02:38:01;;;;;;;;;;;;;;;;;;5015301;28;20096;-70
2023/01/13 02:40:30;;;;;;;0.10;0.10;;;;;;;;;;5014657;28;19905;-70
2023/01/13 02:45:49;;;;;;;0.10;0.10;;;;;;;;;;5014449;28;20030;-70
2023/01/13 02:48:15;;;;;;;7.70;7.07;;;;;;;;;;5014586;28;20056;-69
2023/01/13 02:50:45;;;;;;;0.40;0.40;;;;;;;;;;5014042;28;20025;-70
2023/01/13 02:53:16;;;;;;;0.30;0.30;;;;;;;;;;5014471;28;20445;-70
2023/01/13 02:55:45;;;;;;;5.57;3.85;;;;;;;;;;5014291;28;20371;-70
2023/01/13 02:58:12;;;;;;;0.00;0.00;;;;;;;;;;5014044;28;20125;-69
2023/01/13 03:00:38;;;;;;;0.85;0.85;;;;;;;;;;5014075;28;20030;-70
2023/01/13 03:03:03;;;;;;;0.30;0.30;;;;;;;;;;5022797;28;20114;-69
2023/01/13 03:05:30;;;;;;;1.33;1.33;;;;;;;;;;5034304;28;20025;-69
2023/01/13 03:08:00;;;;;;;0.57;0.57;;;;;;;;;;5033817;28;20017;-70
2023/01/13 03:10:47;;;;;;;0.15;0.15;;;;;;;;;;5033343;28;20034;-70
2023/01/13 03:13:31;;;;;;;0.00;0.00;;;;;;;;;;5033841;28;20082;-70
2023/01/13 03:16:15;;;;;;;4.22;3.67;;;;;;;;;;5016071;28;20101;-70
2023/01/13 03:18:44;;;;;;;0.20;0.20;;;;;;;;;;5033615;28;20025;-70
2023/01/13 03:21:18;;;;;;;0.40;0.40;;;;;;;;;;5033115;28;20009;-70
2023/01/13 03:23:53;;;;;;;3.20;3.00;;;;;;;;;;5033340;28;20429;-70
2023/01/13 03:26:38;;;;;;;1.98;1.88;;;;;;;;;;5033517;28;20032;-70
2023/01/13 03:29:09;;;;;;;1.23;0.90;;;;;;;;;;5032882;28;20048;-70
2023/01/13 03:31:39;;;;;;;2.20;1.60;;;;;;;;;;5033305;28;20021;-71
2023/01/13 03:34:12;;;;;;;1.17;1.17;;;;;;;;;;5033174;28;20507;-71
2023/01/13 03:36:38;;;;;;;0.10;0.10;;;;;;;;;;5033300;28;20065;-70
2023/01/13 03:39:08;;;;;;;1.08;1.08;;;;;;;;;;5033290;28;20018;-71
2023/01/13 03:41:36;;;;;;;0.35;0.35;;;;;;;;;;5033680;28;20017;-70
2023/01/13 03:44:23;;;;;;;0.00;0.00;;;;;;;;;;5033094;28;20030;-70
2023/01/13 03:46:51;;;;;;;7.55;5.00;;;;;;;;;;5033317;28;20036;-70
2023/01/13 03:49:19;;;;;;;3.70;2.40;;;;;;;;;;5033454;28;20112;-70
2023/01/13 03:51:47;;;;;;;0.28;0.17;;;;;;;;;;5033449;28;20028;-70
2023/01/13 03:54:14;;;;;;;2.83;2.63;;;;;;;;;;5033282;28;20065;-70
2023/01/13 03:56:46;;;;;;;0.10;0.10;;;;;;;;;;5032350;28;20029;-71
2023/01/13 03:59:22;;;;;;;0.68;0.68;;;;;;;;;;5022680;28;20033;-70
2023/01/13 04:02:11;;;;;;;0.00;0.00;;;;;;;;;;5014359;28;20025;-71
2023/01/13 04:04:40;;;;;;;0.10;0.10;;;;;;;;;;5001513;28;20081;-72
2023/01/13 04:07:14;;;;;;;0.63;0.57;;;;;;;;;;4992311;28;20477;-73
2023/01/13 04:09:48;;;;;;;0.08;0.08;;;;;;;;;;5010119;28;20101;-74
2023/01/13 04:12:21;;;;;;;0.55;0.55;;;;;;;;;;5009967;28;20022;-72
2023/01/13 04:14:47;;;;;;;0.52;0.52;;;;;;;;;;5008442;28;20026;-70
2023/01/13 04:17:12;;;;;;;0.80;0.80;;;;;;;;;;5009324;28;20040;-71
2023/01/13 04:19:38;;;;;;;0.00;0.00;;;;;;;;;;5009355;28;20470;-73
2023/01/13 04:22:03;;;;;;;7.25;6.82;;;;;;;;;;5020406;28;20112;-71
2023/01/13 04:24:28;;;;;;;0.25;0.25;;;;;;;;;;5049041;28;20025;-71
2023/01/13 04:26:55;;;;;;;0.30;0.30;;;;;;;;;;5049383;28;20036;-69
2023/01/13 04:29:21;;;;;;;0.00;0.00;;;;;;;;;;5031222;28;20021;-70
2023/01/13 04:31:46;;;;;;;0.10;0.10;;;;;;;;;;5047456;28;20024;-72
2023/01/13 04:34:11;;;;;;;0.00;0.00;;;;;;;;;;5028925;28;20029;-72
2023/01/13 04:36:37;;;;;;;0.10;0.10;;;;;;;;;;5028894;28;20384;-71
2023/01/13 04:39:03;;;;;;;0.10;0.10;;;;;;;;;;5029520;28;20030;-70
2023/01/13 04:41:56;;;;;;;0.10;0.10;;;;;;;;;;5011506;28;20103;-70
2023/01/13 04:44:14;;;;;;;4.03;3.63;;;;;;;;;;5027886;28;20030;-70
2023/01/13 04:46:39;;;;;;;0.47;0.47;;;;;;;;;;5032914;28;20033;-72
2023/01/13 04:49:04;;;;;;;0.30;0.30;;;;;;;;;;5032698;28;20037;-71
2023/01/13 04:51:30;;;;;;;0.20;0.20;;;;;;;;;;5032918;28;20057;-72
2023/01/13 04:53:55;;;;;;;0.10;0.10;;;;;;;;;;5032352;28;20372;-72
2023/01/13 04:56:20;;;;;;;0.35;0.32;;;;;;;;;;5031850;28;20021;-72
2023/01/13 04:58:46;;;;;;;0.47;0.47;;;;;;;;;;5032502;28;20033;-70
2023/01/13 05:01:11;;;;;;;0.00;0.00;;;;;;;;;;5031626;28;20022;-73
2023/01/13 05:03:37;;;;;;;0.25;0.25;;;;;;;;;;5031373;28;20500;-69
2023/01/13 05:06:02;;;;;;;0.10;0.10;;;;;;;;;;5031769;28;20126;-70
2023/01/13 05:08:27;;;;;;;0.20;0.20;;;;;;;;;;5031616;28;20034;-70
2023/01/13 05:10:53;;;;;;;0.10;0.10;;;;;;;;;;5032613;28;20460;-70
2023/01/13 05:18:46;;;;;;;0.57;0.57;;;;;;;;;;5032295;28;20018;-70
2023/01/13 05:25:20;;;;;;;0.40;0.40;;;;;;;;;;5032014;28;20044;-72
2023/01/13 05:26:41;;;;;;;1.08;1.08;;;;;;;;;;5031247;28;20120;-72
2023/01/13 05:29:06;;;;;;;0.40;0.40;;;;;;;;;;5014379;28;20092;-72
2023/01/13 05:31:32;;;;;;;0.10;0.10;;;;;;;;;;5031870;28;20361;-71
2023/01/13 05:33:57;;;;;;;0.10;0.10;;;;;;;;;;5031001;28;20036;-71
2023/01/13 05:36:22;;;;;;;0.00;0.00;;;;;;;;;;5031418;28;20472;-73
2023/01/13 05:38:50;;;;;;;0.10;0.10;;;;;;;;;;5031594;28;20025;-71
2023/01/13 05:43:59;;;;;;;0.85;0.85;;;;;;;;;;5031368;28;20025;-72
2023/01/13 05:46:24;;;;;;;0.52;0.45;;;;;;;;;;5031007;28;20036;-71
2023/01/13 05:48:50;;;;;;;0.10;0.10;;;;;;;;;;5031292;28;20052;-72
2023/01/13 05:51:15;;;;;;;0.10;0.10;;;;;;;;;;5031013;28;20021;-72
2023/01/13 05:53:40;;;;;;;0.00;0.00;;;;;;;;;;5030838;28;20044;-70
2023/01/13 05:56:07;;;;;;;0.00;0.00;;;;;;;;;;5030792;28;20100;-69
2023/01/13 05:58:32;;;;;;;0.00;0.00;;;;;;;;;;5030112;28;20021;-71
2023/01/13 06:01:03;;;;;;;0.10;0.10;;;;;;;;;;5013160;28;20034;-70
2023/01/13 06:03:28;;;;;;;0.10;0.10;;;;;;;;;;5012945;28;20042;-71
2023/01/13 06:05:58;;;;;;;0.10;0.10;;;;;;;;;;5012976;28;20461;-70
2023/01/13 06:08:23;;;;;;;0.10;0.10;;;;;;;;;;5011927;28;20180;-72
2023/01/13 06:10:49;;;;;;;0.95;0.95;;;;;;;;;;5030185;28;20432;-71
2023/01/13 06:13:14;;;;;;;0.10;0.10;;;;;;;;;;5030950;28;20071;-71
2023/01/13 06:15:39;;;;;;;0.10;0.10;;;;;;;;;;5030111;28;20033;-72
2023/01/13 06:18:05;;;;;;;0.10;0.10;;;;;;;;;;5029952;28;20025;-72
2023/01/13 06:20:31;;;;;;;0.90;0.90;;;;;;;;;;5031101;28;20029;-70
2023/01/13 06:22:56;;;;;;;0.35;0.35;;;;;;;;;;5029297;28;20021;-72
2023/01/13 06:25:27;;;;;;;0.10;0.10;;;;;;;;;;5028186;28;20025;-70
2023/01/13 06:27:54;;;;;;;0.00;0.00;;;;;;;;;;5030204;28;20078;-69
2023/01/13 06:30:20;;;;;;;0.70;0.70;;;;;;;;;;5030390;28;20025;-70
2023/01/13 06:32:48;;;;;;;0.08;0.08;;;;;;;;;;5030713;28;20014;-69
2023/01/13 06:35:14;;;;;;;0.00;0.00;;;;;;;;;;5028696;28;20033;-69
2023/01/13 06:37:42;;;;;;;0.00;0.00;;;;;;;;;;5029994;28;20492;-71
2023/01/13 06:40:08;;;;;;;1.25;1.20;;;;;;;;;;5011866;28;20038;-69
2023/01/13 06:45:20;;;;;;;0.35;0.35;;;;;;;;;;5030685;28;20055;-69
2023/01/13 06:47:46;;;;;;;0.55;0.55;;;;;;;;;;5029940;28;20104;-70
2023/01/13 06:50:11;;;;;;;0.28;0.28;;;;;;;;;;5029826;28;20151;-70
2023/01/13 06:52:36;;;;;;;1.77;1.17;;;;;;;;;;5030453;28;20068;-69
2023/01/13 06:55:03;;;;;;;0.10;0.10;;;;;;;;;;5030054;28;20249;-70
2023/01/13 06:57:28;;;;;;;0.10;0.10;;;;;;;;;;5030012;28;20029;-69
2023/01/13 06:59:53;;;;;;;0.20;0.20;;;;;;;;;;5029702;28;20021;-69
2023/01/13 07:02:19;;;;;;;3.30;2.53;;;;;;;;;;5029413;28;20071;-70
2023/01/13 07:04:45;;;;;;;0.00;0.00;;;;;;;;;;5029150;28;20047;-71
2023/01/13 07:07:11;;;;;;;0.10;0.10;;;;;;;;;;5029231;28;20036;-70
2023/01/13 07:09:37;;;;;;;0.52;0.52;;;;;;;;;;5030048;28;20032;-70
2023/01/13 07:12:03;;;;;;;0.15;0.15;;;;;;;;;;5029647;28;20026;-70
2023/01/13 07:17:12;;;;;;;0.10;0.10;;;;;;;;;;5029366;28;20030;-71
2023/01/13 07:19:37;;;;;;;0.10;0.10;;;;;;;;;;5029153;28;20045;-70
2023/01/13 07:22:03;;;;;;;0.00;0.00;;;;;;;;;;5029401;28;20111;-70
2023/01/13 07:24:28;;;;;;;3.15;2.85;;;;;;;;;;5029014;28;20369;-70
2023/01/13 07:26:54;;;;;;;1.55;1.45;;;;;;;;;;5029795;28;20029;-71
2023/01/13 07:29:19;;;;;;;0.10;0.10;;;;;;;;;;5030026;28;20029;-71
2023/01/13 07:31:44;;;;;;;0.20;0.20;;;;;;;;;;5029524;28;20022;-71
2023/01/13 07:34:10;;;;;;;0.10;0.10;;;;;;;;;;5028575;28;20017;-70
2023/01/13 07:36:35;;;;;;;0.10;0.10;;;;;;;;;;5029660;28;20049;-70
2023/01/13 07:39:01;;;;;;;0.20;0.20;;;;;;;;;;5029170;28;20021;-71
2023/01/13 07:44:11;;;;;;;0.10;0.10;;;;;;;;;;5029099;28;20412;-71
2023/01/13 07:46:37;;;;;;;0.30;0.30;;;;;;;;;;5028652;28;20132;-72
2023/01/13 07:49:03;;;;;;;0.10;0.10;;;;;;;;;;5029811;28;20080;-71
2023/01/13 07:51:28;;;;;;;0.10;0.10;;;;;;;;;;5028534;28;20032;-72
2023/01/13 07:53:55;;;;;;;0.10;0.10;;;;;;;;;;5028525;28;20018;-72
2023/01/13 07:56:21;;;;;;;0.10;0.10;;;;;;;;;;5028337;28;20416;-72
2023/01/13 07:58:49;;;;;;;0.10;0.10;;;;;;;;;;5029454;28;20013;-72
2023/01/13 08:01:15;;;;;;;0.10;0.10;;;;;;;;;;5027761;28;20026;-72
2023/01/13 08:03:41;;;;;;;0.10;0.10;;;;;;;;;;5010778;28;20056;-71
2023/01/13 08:06:07;;;;;;;0.10;0.10;;;;;;;;;;5029483;28;20044;-71
2023/01/13 08:08:33;;;;;;;0.28;0.28;;;;;;;;;;5029146;28;20075;-73
2023/01/13 08:10:59;;;;;;;0.10;0.10;;;;;;;;;;5029531;28;20037;-71
2023/01/13 08:13:24;;;;;;;1.45;1.45;;;;;;;;;;5029223;28;20022;-72
2023/01/13 08:15:51;;;;;;;1.17;1.13;;;;;;;;;;5028821;28;20459;-74
2023/01/13 08:18:19;;;;;;;0.10;0.10;;;;;;;;;;5029679;28;20022;-72
2023/01/13 08:20:45;;;;;;;9.48;3.63;;;;;;;;;;5031216;28;20025;-71
2023/01/13 08:23:10;;;;;;;0.20;0.20;;;;;;;;;;5033209;28;20159;-71
2023/01/13 08:25:36;;;;;;;0.75;0.75;;;;;;;;;;5033016;28;20025;-71
2023/01/13 08:28:01;;;;;;;0.10;0.10;;;;;;;;;;5032590;28;20032;-72
2023/01/13 08:30:27;;;;;;;1.08;1.05;;;;;;;;;;5033050;28;20026;-71
2023/01/13 08:32:53;;;;;;;0.50;0.50;;;;;;;;;;5015338;28;20034;-74
2023/01/13 08:35:18;;;;;;;0.22;0.22;;;;;;;;;;5033287;28;20052;-72
2023/01/13 08:37:45;;;;;;;0.20;0.20;;;;;;;;;;5032825;28;20471;-71
2023/01/13 08:40:11;;;;;;;0.88;0.82;;;;;;;;;;5032808;28;20024;-71
2023/01/13 08:42:36;;;;;;;0.38;0.38;;;;;;;;;;5032669;28;20022;-71
2023/01/13 08:45:02;;;;;;;0.30;0.30;;;;;;;;;;5032552;28;20027;-73
2023/01/13 08:47:27;;;;;;;0.17;0.17;;;;;;;;;;5032467;28;20041;-71
2023/01/13 08:49:53;;;;;;;3.10;1.35;;;;;;;;;;5032345;28;20364;-72
2023/01/13 08:52:19;;;;;;;0.10;0.10;;;;;;;;;;5032453;28;20034;-71
2023/01/13 08:54:44;;;;;;;1.48;1.40;;;;;;;;;;5032673;28;20021;-71
2023/01/13 08:57:10;;;;;;;0.10;0.10;;;;;;;;;;5030570;28;20461;-74
2023/01/13 08:59:35;;;;;;;0.10;0.10;;;;;;;;;;5041049;28;20079;-73
2023/01/13 09:02:02;;;;;;;0.28;0.28;;;;;;;;;;5041907;28;20064;-74
2023/01/13 09:04:27;;;;;;;0.10;0.10;;;;;;;;;;5015330;28;20025;-74
2023/01/13 09:06:53;;;;;;;0.10;0.10;;;;;;;;;;5031161;28;20091;-74
2023/01/13 09:09:19;;;;;;;0.13;0.13;;;;;;;;;;5031399;28;20072;-74
2023/01/13 09:14:31;;;;;;;0.20;0.20;;;;;;;;;;5029943;28;20035;-75
2023/01/13 09:16:57;;;;;;;4.78;4.57;;;;;;;;;;5029696;28;20022;-74
2023/01/13 09:19:23;;;;;;;0.90;0.90;;;;;;;;;;5010217;28;20026;-74
2023/01/13 09:21:48;;;;;;;0.10;0.10;;;;;;;;;;5023682;28;20030;-74
2023/01/13 09:24:14;;;;;;;0.20;0.20;;;;;;;;;;5028959;28;20116;-76
2023/01/13 09:26:39;;;;;;;0.47;0.47;;;;;;;;;;5012906;28;20049;-75
2023/01/13 09:29:05;;;;;;;0.20;0.20;;;;;;;;;;5027522;28;20026;-75
2023/01/13 09:31:33;;;;;;;0.20;0.20;;;;;;;;;;5041302;28;20064;-75
2023/01/13 09:36:47;;;;;;;2.65;1.88;;;;;;;;;;5010331;28;20022;-75
2023/01/13 09:39:12;;;;;;;0.30;0.30;;;;;;;;;;5031711;28;20103;-73
2023/01/13 09:44:38;;;;;;;0.10;0.10;;;;;;;;;;5030120;28;20021;-74
2023/01/13 09:47:06;;;;;;;0.10;0.10;;;;;;;;;;5025436;28;20037;-73
2023/01/13 09:49:39;;;;;;;0.10;0.10;;;;;;;;;;5021731;28;20018;-73
2023/01/13 09:52:24;;;;;;;0.10;0.10;;;;;;;;;;5029486;28;20017;-73
2023/01/13 09:54:53;;;;;;;4.22;1.73;;;;;;;;;;5034017;28;20056;-75
2023/01/13 09:57:19;;;;;;;0.35;0.35;;;;;;;;;;5030647;28;20034;-73
2023/01/13 09:59:44;;;;;;;0.17;0.17;;;;;;;;;;5029208;28;20021;-73
2023/01/13 10:02:10;;;;;;;0.10;0.10;;;;;;;;;;5028884;28;20021;-73
2023/01/13 10:04:36;;;;;;;0.20;0.20;;;;;;;;;;5029165;28;20044;-73
2023/01/13 10:07:04;;;;;;;0.10;0.10;;;;;;;;;;5029370;28;20041;-74
2023/01/13 10:09:33;;;;;;;0.10;0.10;;;;;;;;;;5009391;28;20464;-73
2023/01/13 10:14:54;;;;;;;0.10;0.10;;;;;;;;;;5027162;28;20121;-73
2023/01/13 10:17:20;;;;;;;0.10;0.10;;;;;;;;;;5009697;28;20112;-73
2023/01/13 10:19:56;;;;;;;0.10;0.10;;;;;;;;;;5027443;28;20152;-73
2023/01/13 10:22:27;;;;;;;0.10;0.10;;;;;;;;;;5029024;28;20026;-73
2023/01/13 10:25:00;;;;;;;0.20;0.20;;;;;;;;;;5030739;28;20075;-73
2023/01/13 10:27:31;;;;;;;0.10;0.10;;;;;;;;;;5030687;28;20124;-73
2023/01/13 10:29:57;;;;;;;0.10;0.10;;;;;;;;;;5030517;28;20026;-73
2023/01/13 10:32:22;;;;;;;1.27;1.25;;;;;;;;;;5030662;28;20025;-72
2023/01/13 10:34:56;;;;;;;0.10;0.10;;;;;;;;;;5030743;28;20524;-73
2023/01/13 10:37:25;;;;;;;0.10;0.10;;;;;;;;;;5030944;28;20136;-73
2023/01/13 10:39:51;;;;;;;;;;;;;;;;;;5031128;28;20523;-73
2023/01/13 10:42:17;;;;;;;0.20;0.20;;;;;;;;;;5030524;28;20007;-74
2023/01/13 10:44:52;;;;;;;0.10;0.10;;;;;;;;;;5030867;28;20260;-73
2023/01/13 10:47:20;;;;;;;0.28;0.28;;;;;;;;;;5030186;28;20453;-74
2023/01/13 10:49:57;;;;;;;0.10;0.10;;;;;;;;;;5030334;28;20373;-73
2023/01/13 10:52:24;;;;;;;0.10;0.10;;;;;;;;;;5030535;28;20481;-73
2023/01/13 10:54:51;;;;;;;0.10;0.10;;;;;;;;;;5030028;28;20076;-73
2023/01/13 10:57:20;;;;;;;0.10;0.10;;;;;;;;;;5012696;28;20021;-73
2023/01/13 10:59:46;;;;;;;0.10;0.10;;;;;;;;;;5028739;28;20017;-73
2023/01/13 11:02:31;;;;;;;1.65;1.55;;;;;;;;;;5029855;28;20025;-74
2023/01/13 11:05:02;;;;;;;0.40;0.40;;;;;;;;;;5030299;28;20446;-74
2023/01/13 11:07:27;;;;;;;0.10;0.10;;;;;;;;;;5030140;28;20037;-73
2023/01/13 11:10:08;;;;;;;0.10;0.10;;;;;;;;;;5029969;28;20026;-73
2023/01/13 11:12:43;;;;;;;0.10;0.10;;;;;;;;;;5030122;28;20708;-73
2023/01/13 11:15:12;;;;;;;0.10;0.10;;;;;;;;;;5029280;28;20108;-73
2023/01/13 11:17:41;;;;;;;0.85;0.85;;;;;;;;;;5029927;28;20097;-76
2023/01/13 11:20:15;;;;;;;3.63;1.10;;;;;;;;;;5012511;28;20715;-72
2023/01/13 11:22:53;;;;;;;0.40;0.35;;;;;;;;;;5029846;28;20022;-71
2023/01/13 11:25:19;;;;;;;0.10;0.10;;;;;;;;;;5029824;28;20026;-74
2023/01/13 11:28:04;;;;;;;0.20;0.20;;;;;;;;;;5029632;28;20040;-72
2023/01/13 11:30:48;;;;;;;0.47;0.47;;;;;;;;;;5029292;28;20485;-75
2023/01/13 11:33:13;;;;;;;0.20;0.20;;;;;;;;;;5029608;28;20041;-73
2023/01/13 11:35:45;;;;;;;0.10;0.10;;;;;;;;;;5029460;28;20009;-73
2023/01/13 11:38:31;;;;;;;0.43;0.43;;;;;;;;;;5029599;28;20022;-73
2023/01/13 11:41:01;;;;;;;1.95;0.80;;;;;;;;;;5028856;28;20040;-73
2023/01/13 11:43:33;;;;;;;0.10;0.10;;;;;;;;;;5029871;28;20017;-72
2023/01/13 11:45:59;;;;;;;0.30;0.30;;;;;;;;;;5029617;28;20068;-73
2023/01/13 11:48:29;;;;;;;0.30;0.30;;;;;;;;;;5029332;28;20064;-73
2023/01/13 11:50:58;;;;;;;0.10;0.10;;;;;;;;;;5029573;28;20495;-74
2023/01/13 11:53:26;;;;;;;0.17;0.17;;;;;;;;;;5029394;28;20033;-73
2023/01/13 11:55:52;;;;;;;0.10;0.10;;;;;;;;;;5028545;28;20052;-73
2023/01/13 11:58:23;;;;;;;0.10;0.10;;;;;;;;;;5029575;28;20025;-73
2023/01/13 12:01:04;;;;;;;0.10;0.10;;;;;;;;;;5029231;28;20029;-73
2023/01/13 12:03:41;;;;;;;0.45;0.45;;;;;;;;;;5029180;28;20045;-74
2023/01/13 12:06:10;;;;;;;0.30;0.30;;;;;;;;;;5029752;28;20033;-72
2023/01/13 12:08:50;;;;;;;0.10;0.10;;;;;;;;;;5029220;28;20423;-73
2023/01/13 12:11:19;;;;;;;0.93;0.22;;;;;;;;;;5029290;28;20448;-72
2023/01/13 12:14:09;;;;;;;0.10;0.10;;;;;;;;;;5029093;28;20028;-74
2023/01/13 12:16:35;;;;;;;0.10;0.10;;;;;;;;;;5029340;28;20026;-73
2023/01/13 12:19:13;;;;;;;0.10;0.10;;;;;;;;;;5011622;28;20056;-74
2023/01/13 12:21:59;;;;;;;0.40;0.40;;;;;;;;;;5029039;28;20473;-73
2023/01/13 12:24:53;;;;;;;0.10;0.10;;;;;;;;;;5028902;28;20033;-73
2023/01/13 12:27:23;;;;;;;0.70;0.70;;;;;;;;;;5020887;28;20156;-73
2023/01/13 12:29:50;;;;;;;0.20;0.20;;;;;;;;;;5029028;28;20075;-73
2023/01/13 12:32:19;;;;;;;0.10;0.10;;;;;;;;;;5029383;28;20453;-73
2023/01/13 12:34:45;;;;;;;;;;;;;;;;;;5029806;28;20045;-72
2023/01/13 12:37:25;;;;;;;0.10;0.10;;;;;;;;;;5028682;28;20309;-73
2023/01/13 12:40:09;;;;;;;0.25;0.25;;;;;;;;;;5029262;28;20266;-73
2023/01/13 12:45:38;;;;;;;0.15;0.15;;;;;;;;;;5028812;28;20466;-74
2023/01/13 12:48:03;;;;;;;0.15;0.15;;;;;;;;;;5028784;28;20040;-73
2023/01/13 12:50:29;;;;;;;2.60;0.63;;;;;;;;;;5028884;28;20093;-72
2023/01/13 12:52:55;;;;;;;0.10;0.10;;;;;;;;;;5028863;28;20028;-73
2023/01/13 12:55:21;;;;;;;0.10;0.10;;;;;;;;;;5011594;28;20558;-73
2023/01/13 12:57:55;;;;;;;0.10;0.10;;;;;;;;;;5028785;28;20034;-73
2023/01/13 13:00:21;;;;;;;0.10;0.10;;;;;;;;;;5028598;28;20429;-73
2023/01/13 13:03:19;;;;;;;0.10;0.10;;;;;;;;;;5028696;28;20040;-73
2023/01/13 13:05:46;;;;;;;0.20;0.20;;;;;;;;;;4991994;28;20034;-73
2023/01/13 13:08:31;;;;;;;0.20;0.20;;;;;;;;;;4977214;28;20060;-72
2023/01/13 13:11:05;;;;;;;0.10;0.10;;;;;;;;;;5009615;28;20124;-72
2023/01/13 13:13:40;;;;;;;0.38;0.38;;;;;;;;;;5011190;28;20025;-73
2023/01/13 13:16:34;;;;;;;0.10;0.10;;;;;;;;;;5011234;28;20022;-73
2023/01/13 13:19:21;;;;;;;0.35;0.35;;;;;;;;;;4994350;28;20366;-73
2023/01/13 13:22:05;;;;;;;0.20;0.20;;;;;;;;;;5025324;28;20045;-73
2023/01/13 13:24:30;;;;;;;0.10;0.10;;;;;;;;;;5024901;28;20036;-73
2023/01/13 13:26:56;;;;;;;0.30;0.30;;;;;;;;;;5027174;28;20037;-73
2023/01/13 13:29:33;;;;;;;0.10;0.10;;;;;;;;;;5030448;28;20030;-73
2023/01/13 13:32:07;;;;;;;0.10;0.10;;;;;;;;;;5031788;28;20026;-73
2023/01/13 13:34:33;;;;;;;0.10;0.10;;;;;;;;;;5030588;28;20037;-73
2023/01/13 13:36:58;;;;;;;0.10;0.10;;;;;;;;;;5031895;28;20338;-73
2023/01/13 13:47:45;;;;;;;0.38;0.38;;;;;;;;;;5029698;28;20044;-73
2023/01/13 13:50:13;;;;;;;0.10;0.10;;;;;;;;;;5010142;28;20017;-73
2023/01/13 13:52:41;;;;;;;1.00;0.82;;;;;;;;;;5002085;28;20075;-73
2023/01/13 13:55:27;;;;;;;0.10;0.10;;;;;;;;;;5016624;28;20431;-75
2023/01/13 13:57:53;;;;;;;0.20;0.20;;;;;;;;;;5021023;28;20949;-73
2023/01/13 14:00:21;;;;;;;0.00;0.00;;;;;;;;;;5029266;28;20040;-73
2023/01/13 14:02:50;;;;;;;0.15;0.15;;;;;;;;;;5029899;28;20048;-73
2023/01/13 14:05:21;;;;;;;2.47;1.20;;;;;;;;;;5028873;28;20068;-73
2023/01/13 14:07:48;;;;;;;4.45;2.00;;;;;;;;;;5031345;28;20033;-73
2023/01/13 14:10:18;;;;;;;0.40;0.40;;;;;;;;;;5013481;28;20033;-74
2023/01/13 14:12:44;;;;;;;0.10;0.10;;;;;;;;;;5031394;28;20079;-73
2023/01/13 14:15:28;;;;;;;0.17;0.17;;;;;;;;;;5029645;28;20035;-73
2023/01/13 14:17:53;;;;;;;0.20;0.20;;;;;;;;;;5030273;28;20048;-73
2023/01/13 14:20:19;;;;;;;0.75;0.75;;;;;;;;;;5031091;28;20399;-73
2023/01/13 14:22:48;;;;;;;0.73;0.55;;;;;;;;;;5031025;28;20088;-74
2023/01/13 14:25:32;;;;;;;0.20;0.20;;;;;;;;;;5030998;28;20507;-73
2023/01/13 14:27:59;;;;;;;0.20;0.20;;;;;;;;;;5030634;28;20131;-73
2023/01/13 14:30:25;;;;;;;0.20;0.20;;;;;;;;;;5013018;28;20017;-73
2023/01/13 14:32:51;;;;;;;1.75;0.55;;;;;;;;;;5031079;28;20021;-73
2023/01/13 14:35:17;;;;;;;0.25;0.25;;;;;;;;;;5030744;28;20449;-73
2023/01/13 14:37:44;;;;;;;0.28;0.28;;;;;;;;;;5029887;28;20032;-73
2023/01/13 14:40:29;;;;;;;0.10;0.10;;;;;;;;;;5012833;28;20384;-73
2023/01/13 14:43:01;;;;;;;1.45;0.43;;;;;;;;;;5030776;28;20503;-73
2023/01/13 14:45:26;;;;;;;0.20;0.20;;;;;;;;;;5028946;28;20056;-73
2023/01/13 14:47:53;;;;;;;1.08;0.70;;;;;;;;;;4997236;28;20131;-72
2023/01/13 14:50:22;;;;;;;0.10;0.10;;;;;;;;;;5010183;28;20024;-74
2023/01/13 14:52:49;;;;;;;0.20;0.20;;;;;;;;;;5001920;28;20401;-73
2023/01/13 14:55:20;;;;;;;0.10;0.10;;;;;;;;;;5008960;28;20025;-73
2023/01/13 14:57:45;;;;;;;0.10;0.10;;;;;;;;;;5010056;28;20037;-75
2023/01/13 15:00:14;;;;;;;0.10;0.10;;;;;;;;;;5008423;28;20018;-75
2023/01/13 15:02:40;;;;;;;0.10;0.10;;;;;;;;;;4997319;28;20045;-73
2023/01/13 15:05:18;;;;;;;0.10;0.10;;;;;;;;;;5010628;28;20472;-74
2023/01/13 15:07:53;;;;;;;0.10;0.10;;;;;;;;;;5010897;28;20469;-74
2023/01/13 15:10:19;;;;;;;0.10;0.10;;;;;;;;;;5030059;28;20650;-74
2023/01/13 15:12:45;;;;;;;0.10;0.10;;;;;;;;;;5023963;28;20412;-74
2023/01/13 15:15:22;;;;;;;0.10;0.10;;;;;;;;;;5021563;28;20029;-73
2023/01/13 15:17:48;;;;;;;0.10;0.10;;;;;;;;;;5028232;28;20030;-74
2023/01/13 15:20:14;;;;;;;0.10;0.10;;;;;;;;;;5027734;28;20033;-75
2023/01/13 15:22:39;;;;;;;0.10;0.10;;;;;;;;;;5027008;28;20485;-74
2023/01/13 15:25:05;;;;;;;0.10;0.10;;;;;;;;;;5027985;28;20484;-74
2023/01/13 15:27:30;;;;;;;0.10;0.10;;;;;;;;;;5026775;28;20138;-74
2023/01/13 15:29:56;;;;;;;0.10;0.10;;;;;;;;;;5005725;28;20021;-75
2023/01/13 15:32:21;;;;;;;0.68;0.68;;;;;;;;;;5027239;28;20022;-75
2023/01/13 15:34:47;;;;;;;0.10;0.10;;;;;;;;;;5026939;28;20056;-74
2023/01/13 15:37:18;;;;;;;3.30;1.45;;;;;;;;;;5035933;28;20020;-74
2023/01/13 15:39:45;;;;;;;1.00;1.00;;;;;;;;;;5043810;28;20464;-74
2023/01/13 15:47:44;;;;;;;0.73;0.73;;;;;;;;;;4997094;28;20080;-73
2023/01/13 15:50:16;;;;;;;0.40;0.40;;;;;;;;;;5029476;28;20106;-73
2023/01/13 15:52:42;;;;;;;0.40;0.40;;;;;;;;;;5029175;28;20018;-74